sensor_id;sensor_type;location;lat;lon;timestamp;temperature;humidity
12849;DHT22;6493;50.928;7.172;2022-12-24T00:03:31;8.10;72.20
12849;DHT22;6493;50.928;7.172;2022-12-24T00:08:35;8.10;72.20
12849;DHT22;6493;50.928;7.172;2022-12-24T00:13:38;8.10;71.60
12849;DHT22;6493;50.928;7.172;2022-12-24T00:18:43;8.10;71.60
12849;DHT22;6493;50.928;7.172;2022-12-24T00:23:48;8.10;72.10
12849;DHT22;6493;50.928;7.172;2022-12-24T00:28:52;8.00;71.60
12849;DHT22;6493;50.928;7.172;2022-12-24T00:33:57;8.00;71.20
12849;DHT22;6493;50.928;7.172;2022-12-24T00:39:00;8.00;70.40
12849;DHT22;6493;50.928;7.172;2022-12-24T00:44:05;8.00;71.50
12849;DHT22;6493;50.928;7.172;2022-12-24T00:49:12;7.90;71.20
12849;DHT22;6493;50.928;7.172;2022-12-24T00:54:16;7.90;71.70
12849;DHT22;6493;50.928;7.172;2022-12-24T00:59:20;7.90;71.20
12849;DHT22;6493;50.928;7.172;2022-12-24T01:04:25;7.90;71.60
12849;DHT22;6493;50.928;7.172;2022-12-24T01:09:45;7.90;71.50
12849;DHT22;6493;50.928;7.172;2022-12-24T01:14:49;7.90;71.50
12849;DHT22;6493;50.928;7.172;2022-12-24T01:19:54;7.90;71.70
12849;DHT22;6493;50.928;7.172;2022-12-24T01:24:58;7.90;71.40
12849;DHT22;6493;50.928;7.172;2022-12-24T01:30:02;7.90;71.70
12849;DHT22;6493;50.928;7.172;2022-12-24T01:35:08;7.80;71.60
12849;DHT22;6493;50.928;7.172;2022-12-24T01:40:14;7.80;71.70
12849;DHT22;6493;50.928;7.172;2022-12-24T01:45:42;7.80;71.80
12849;DHT22;6493;50.928;7.172;2022-12-24T01:50:47;7.80;71.50
12849;DHT22;6493;50.928;7.172;2022-12-24T01:55:53;7.70;71.40
12849;DHT22;6493;50.928;7.172;2022-12-24T02:00:57;7.70;71.70
12849;DHT22;6493;50.928;7.172;2022-12-24T02:06:03;7.70;71.10
12849;DHT22;6493;50.928;7.172;2022-12-24T02:11:09;7.80;71.70
12849;DHT22;6493;50.928;7.172;2022-12-24T02:16:24;7.80;71.70
12849;DHT22;6493;50.928;7.172;2022-12-24T02:21:52;7.80;71.50
12849;DHT22;6493;50.928;7.172;2022-12-24T02:27:12;7.80;71.60
12849;DHT22;6493;50.928;7.172;2022-12-24T02:32:22;7.80;71.20
12849;DHT22;6493;50.928;7.172;2022-12-24T02:37:31;7.80;71.60
12849;DHT22;6493;50.928;7.172;2022-12-24T02:42:40;7.80;72.20
12849;DHT22;6493;50.928;7.172;2022-12-24T02:47:45;7.80;71.70
12849;DHT22;6493;50.928;7.172;2022-12-24T02:52:51;7.80;71.50
12849;DHT22;6493;50.928;7.172;2022-12-24T02:58:09;7.80;71.50
12849;DHT22;6493;50.928;7.172;2022-12-24T03:03:29;7.80;71.40
12849;DHT22;6493;50.928;7.172;2022-12-24T03:08:41;7.80;71.50
12849;DHT22;6493;50.928;7.172;2022-12-24T03:13:47;7.90;71.50
12849;DHT22;6493;50.928;7.172;2022-12-24T03:18:54;7.80;71.30
12849;DHT22;6493;50.928;7.172;2022-12-24T03:23:58;7.80;71.10
12849;DHT22;6493;50.928;7.172;2022-12-24T03:29:04;7.80;71.00
12849;DHT22;6493;50.928;7.172;2022-12-24T03:34:09;7.80;71.20
12849;DHT22;6493;50.928;7.172;2022-12-24T03:39:13;7.70;71.20
12849;DHT22;6493;50.928;7.172;2022-12-24T03:44:17;7.80;71.30
12849;DHT22;6493;50.928;7.172;2022-12-24T03:49:22;7.70;71.00
12849;DHT22;6493;50.928;7.172;2022-12-24T03:54:26;7.70;72.00
12849;DHT22;6493;50.928;7.172;2022-12-24T03:59:29;7.70;71.30
12849;DHT22;6493;50.928;7.172;2022-12-24T04:04:34;7.60;71.30
12849;DHT22;6493;50.928;7.172;2022-12-24T04:09:39;7.60;71.40
12849;DHT22;6493;50.928;7.172;2022-12-24T04:14:42;7.50;71.50
12849;DHT22;6493;50.928;7.172;2022-12-24T04:19:47;7.50;71.50
12849;DHT22;6493;50.928;7.172;2022-12-24T04:24:51;7.40;72.20
12849;DHT22;6493;50.928;7.172;2022-12-24T04:29:54;7.40;71.50
12849;DHT22;6493;50.928;7.172;2022-12-24T04:35:00;7.30;71.30
12849;DHT22;6493;50.928;7.172;2022-12-24T04:40:04;7.30;71.40
12849;DHT22;6493;50.928;7.172;2022-12-24T04:45:10;7.30;71.60
12849;DHT22;6493;50.928;7.172;2022-12-24T04:50:15;7.20;71.80
12849;DHT22;6493;50.928;7.172;2022-12-24T04:55:18;7.30;71.90
12849;DHT22;6493;50.928;7.172;2022-12-24T05:00:22;7.30;71.80
12849;DHT22;6493;50.928;7.172;2022-12-24T05:05:28;7.20;71.90
12849;DHT22;6493;50.928;7.172;2022-12-24T05:10:31;7.20;71.90
12849;DHT22;6493;50.928;7.172;2022-12-24T05:15:35;7.20;72.00
12849;DHT22;6493;50.928;7.172;2022-12-24T05:20:41;7.20;72.00
12849;DHT22;6493;50.928;7.172;2022-12-24T05:25:45;7.20;72.20
12849;DHT22;6493;50.928;7.172;2022-12-24T05:31:06;7.20;72.10
12849;DHT22;6493;50.928;7.172;2022-12-24T05:36:11;7.20;72.20
12849;DHT22;6493;50.928;7.172;2022-12-24T05:41:15;7.20;72.20
12849;DHT22;6493;50.928;7.172;2022-12-24T05:46:21;7.30;72.30
12849;DHT22;6493;50.928;7.172;2022-12-24T05:51:26;7.30;72.40
12849;DHT22;6493;50.928;7.172;2022-12-24T05:56:30;7.30;72.20
12849;DHT22;6493;50.928;7.172;2022-12-24T06:01:34;7.30;72.00
12849;DHT22;6493;50.928;7.172;2022-12-24T06:06:39;7.30;71.80
12849;DHT22;6493;50.928;7.172;2022-12-24T06:11:42;7.20;71.70
12849;DHT22;6493;50.928;7.172;2022-12-24T06:16:46;7.20;71.80
12849;DHT22;6493;50.928;7.172;2022-12-24T06:21:51;7.10;71.80
12849;DHT22;6493;50.928;7.172;2022-12-24T06:26:55;7.10;72.00
12849;DHT22;6493;50.928;7.172;2022-12-24T06:31:58;7.10;72.20
12849;DHT22;6493;50.928;7.172;2022-12-24T06:37:03;7.10;72.10
12849;DHT22;6493;50.928;7.172;2022-12-24T06:42:07;7.10;72.00
12849;DHT22;6493;50.928;7.172;2022-12-24T06:47:10;7.10;71.90
12849;DHT22;6493;50.928;7.172;2022-12-24T06:52:15;7.10;72.00
12849;DHT22;6493;50.928;7.172;2022-12-24T06:57:19;7.10;72.10
12849;DHT22;6493;50.928;7.172;2022-12-24T07:02:23;7.10;72.30
12849;DHT22;6493;50.928;7.172;2022-12-24T07:07:28;7.10;72.20
12849;DHT22;6493;50.928;7.172;2022-12-24T07:12:31;7.10;72.20
12849;DHT22;6493;50.928;7.172;2022-12-24T07:17:35;7.10;72.00
12849;DHT22;6493;50.928;7.172;2022-12-24T07:22:41;7.00;71.80
12849;DHT22;6493;50.928;7.172;2022-12-24T07:27:44;7.00;71.80
12849;DHT22;6493;50.928;7.172;2022-12-24T07:32:48;7.00;71.90
12849;DHT22;6493;50.928;7.172;2022-12-24T07:37:53;6.90;71.90
12849;DHT22;6493;50.928;7.172;2022-12-24T07:42:56;6.90;72.00
12849;DHT22;6493;50.928;7.172;2022-12-24T07:48:00;6.90;72.20
12849;DHT22;6493;50.928;7.172;2022-12-24T07:53:05;6.90;72.30
12849;DHT22;6493;50.928;7.172;2022-12-24T07:58:09;6.90;72.40
12849;DHT22;6493;50.928;7.172;2022-12-24T08:03:16;7.00;72.50
12849;DHT22;6493;50.928;7.172;2022-12-24T08:08:21;7.00;72.70
12849;DHT22;6493;50.928;7.172;2022-12-24T08:13:24;7.00;72.70
12849;DHT22;6493;50.928;7.172;2022-12-24T08:18:28;7.00;72.60
12849;DHT22;6493;50.928;7.172;2022-12-24T08:23:33;7.10;72.70
12849;DHT22;6493;50.928;7.172;2022-12-24T08:28:37;7.10;72.60
12849;DHT22;6493;50.928;7.172;2022-12-24T08:33:40;7.10;72.60
12849;DHT22;6493;50.928;7.172;2022-12-24T08:38:45;7.20;72.80
12849;DHT22;6493;50.928;7.172;2022-12-24T08:43:49;7.30;72.90
12849;DHT22;6493;50.928;7.172;2022-12-24T08:48:53;7.30;73.00
12849;DHT22;6493;50.928;7.172;2022-12-24T08:53:58;7.40;73.10
12849;DHT22;6493;50.928;7.172;2022-12-24T08:59:02;7.40;72.90
12849;DHT22;6493;50.928;7.172;2022-12-24T09:04:08;7.50;72.80
12849;DHT22;6493;50.928;7.172;2022-12-24T09:09:13;7.50;72.80
12849;DHT22;6493;50.928;7.172;2022-12-24T09:14:17;7.50;72.30
12849;DHT22;6493;50.928;7.172;2022-12-24T09:19:21;7.60;72.50
12849;DHT22;6493;50.928;7.172;2022-12-24T09:24:26;7.60;72.60
12849;DHT22;6493;50.928;7.172;2022-12-24T09:29:30;7.60;72.60
12849;DHT22;6493;50.928;7.172;2022-12-24T09:34:34;7.60;72.50
12849;DHT22;6493;50.928;7.172;2022-12-24T09:39:39;7.60;72.50
12849;DHT22;6493;50.928;7.172;2022-12-24T09:44:46;7.70;72.40
12849;DHT22;6493;50.928;7.172;2022-12-24T09:49:54;7.70;73.30
12849;DHT22;6493;50.928;7.172;2022-12-24T09:55:05;7.70;72.40
12849;DHT22;6493;50.928;7.172;2022-12-24T10:00:28;7.70;72.30
12849;DHT22;6493;50.928;7.172;2022-12-24T10:05:38;7.70;73.10
12849;DHT22;6493;50.928;7.172;2022-12-24T10:10:49;7.70;72.60
12849;DHT22;6493;50.928;7.172;2022-12-24T10:15:57;7.80;72.90
12849;DHT22;6493;50.928;7.172;2022-12-24T10:21:09;7.80;72.60
12849;DHT22;6493;50.928;7.172;2022-12-24T10:26:21;7.90;72.60
12849;DHT22;6493;50.928;7.172;2022-12-24T10:31:28;7.90;72.70
12849;DHT22;6493;50.928;7.172;2022-12-24T10:36:33;7.90;72.70
12849;DHT22;6493;50.928;7.172;2022-12-24T10:41:40;8.00;72.70
12849;DHT22;6493;50.928;7.172;2022-12-24T10:46:45;8.00;72.50
12849;DHT22;6493;50.928;7.172;2022-12-24T10:51:51;8.00;72.60
12849;DHT22;6493;50.928;7.172;2022-12-24T10:56:59;8.00;72.70
12849;DHT22;6493;50.928;7.172;2022-12-24T11:02:25;8.10;72.80
12849;DHT22;6493;50.928;7.172;2022-12-24T11:07:30;8.10;72.70
12849;DHT22;6493;50.928;7.172;2022-12-24T11:12:38;8.20;72.80
12849;DHT22;6493;50.928;7.172;2022-12-24T11:17:44;8.20;72.80
12849;DHT22;6493;50.928;7.172;2022-12-24T11:22:55;8.20;72.90
12849;DHT22;6493;50.928;7.172;2022-12-24T11:28:10;8.20;72.90
12849;DHT22;6493;50.928;7.172;2022-12-24T11:33:19;8.30;72.40
12849;DHT22;6493;50.928;7.172;2022-12-24T11:38:25;8.40;72.80
12849;DHT22;6493;50.928;7.172;2022-12-24T11:43:38;8.40;72.50
12849;DHT22;6493;50.928;7.172;2022-12-24T11:49:15;8.40;72.50
12849;DHT22;6493;50.928;7.172;2022-12-24T11:54:25;8.50;72.70
12849;DHT22;6493;50.928;7.172;2022-12-24T11:59:33;8.60;73.40
12849;DHT22;6493;50.928;7.172;2022-12-24T12:04:41;8.90;73.70
12849;DHT22;6493;50.928;7.172;2022-12-24T12:09:48;9.00;73.20
12849;DHT22;6493;50.928;7.172;2022-12-24T12:14:57;9.10;73.10
12849;DHT22;6493;50.928;7.172;2022-12-24T12:20:04;9.10;72.20
12849;DHT22;6493;50.928;7.172;2022-12-24T12:25:18;9.10;72.20
12849;DHT22;6493;50.928;7.172;2022-12-24T12:30:25;9.20;72.10
12849;DHT22;6493;50.928;7.172;2022-12-24T12:35:31;9.20;72.20
12849;DHT22;6493;50.928;7.172;2022-12-24T12:40:47;9.20;72.10
12849;DHT22;6493;50.928;7.172;2022-12-24T12:45:57;9.20;71.70
12849;DHT22;6493;50.928;7.172;2022-12-24T12:51:06;9.10;71.40
12849;DHT22;6493;50.928;7.172;2022-12-24T12:56:20;9.10;71.60
12849;DHT22;6493;50.928;7.172;2022-12-24T13:01:34;9.10;71.80
12849;DHT22;6493;50.928;7.172;2022-12-24T13:06:57;9.20;71.80
12849;DHT22;6493;50.928;7.172;2022-12-24T13:12:28;9.20;71.60
12849;DHT22;6493;50.928;7.172;2022-12-24T13:17:50;9.20;71.30
12849;DHT22;6493;50.928;7.172;2022-12-24T13:22:58;9.20;71.50
12849;DHT22;6493;50.928;7.172;2022-12-24T13:33:48;9.30;72.50
12849;DHT22;6493;50.928;7.172;2022-12-24T13:38:52;9.30;71.80
12849;DHT22;6493;50.928;7.172;2022-12-24T13:44:03;9.30;71.80
12849;DHT22;6493;50.928;7.172;2022-12-24T13:49:16;9.40;71.60
12849;DHT22;6493;50.928;7.172;2022-12-24T13:54:24;9.30;71.20
12849;DHT22;6493;50.928;7.172;2022-12-24T13:59:35;9.40;71.40
12849;DHT22;6493;50.928;7.172;2022-12-24T14:04:41;9.30;71.20
12849;DHT22;6493;50.928;7.172;2022-12-24T14:09:48;9.30;70.80
12849;DHT22;6493;50.928;7.172;2022-12-24T14:14:52;9.30;71.50
12849;DHT22;6493;50.928;7.172;2022-12-24T14:19:59;9.30;70.70
12849;DHT22;6493;50.928;7.172;2022-12-24T14:25:11;9.20;70.40
12849;DHT22;6493;50.928;7.172;2022-12-24T14:30:18;9.20;69.90
12849;DHT22;6493;50.928;7.172;2022-12-24T14:35:25;9.10;69.80
12849;DHT22;6493;50.928;7.172;2022-12-24T14:40:31;9.00;69.70
12849;DHT22;6493;50.928;7.172;2022-12-24T14:45:43;9.00;69.90
12849;DHT22;6493;50.928;7.172;2022-12-24T14:50:58;8.90;69.70
12849;DHT22;6493;50.928;7.172;2022-12-24T14:56:09;8.90;70.00
12849;DHT22;6493;50.928;7.172;2022-12-24T15:01:21;8.90;70.00
12849;DHT22;6493;50.928;7.172;2022-12-24T15:06:28;8.90;70.00
12849;DHT22;6493;50.928;7.172;2022-12-24T15:11:33;8.90;70.00
12849;DHT22;6493;50.928;7.172;2022-12-24T15:16:38;8.90;70.10
12849;DHT22;6493;50.928;7.172;2022-12-24T15:21:44;8.90;70.20
12849;DHT22;6493;50.928;7.172;2022-12-24T15:26:47;8.90;70.00
12849;DHT22;6493;50.928;7.172;2022-12-24T15:31:52;8.90;70.00
12849;DHT22;6493;50.928;7.172;2022-12-24T15:37:02;8.90;70.10
12849;DHT22;6493;50.928;7.172;2022-12-24T15:42:07;8.90;70.00
12849;DHT22;6493;50.928;7.172;2022-12-24T15:47:26;8.90;70.00
12849;DHT22;6493;50.928;7.172;2022-12-24T15:52:38;8.90;69.90
12849;DHT22;6493;50.928;7.172;2022-12-24T15:57:42;8.90;69.70
12849;DHT22;6493;50.928;7.172;2022-12-24T16:02:45;8.90;69.80
12849;DHT22;6493;50.928;7.172;2022-12-24T16:08:04;8.90;70.00
12849;DHT22;6493;50.928;7.172;2022-12-24T16:13:14;8.80;69.50
12849;DHT22;6493;50.928;7.172;2022-12-24T16:18:23;8.80;69.50
12849;DHT22;6493;50.928;7.172;2022-12-24T16:23:33;8.80;69.50
12849;DHT22;6493;50.928;7.172;2022-12-24T16:28:39;8.80;69.50
12849;DHT22;6493;50.928;7.172;2022-12-24T16:33:43;8.70;69.40
12849;DHT22;6493;50.928;7.172;2022-12-24T16:38:48;8.60;69.30
12849;DHT22;6493;50.928;7.172;2022-12-24T16:44:09;8.50;69.10
12849;DHT22;6493;50.928;7.172;2022-12-24T16:49:15;8.50;69.10
12849;DHT22;6493;50.928;7.172;2022-12-24T16:54:20;8.40;69.20
12849;DHT22;6493;50.928;7.172;2022-12-24T16:59:24;8.40;69.40
12849;DHT22;6493;50.928;7.172;2022-12-24T17:04:30;8.40;69.50
12849;DHT22;6493;50.928;7.172;2022-12-24T17:09:35;8.40;69.60
12849;DHT22;6493;50.928;7.172;2022-12-24T17:14:39;8.40;70.00
12849;DHT22;6493;50.928;7.172;2022-12-24T17:19:43;8.50;69.80
12849;DHT22;6493;50.928;7.172;2022-12-24T17:24:48;8.50;69.80
12849;DHT22;6493;50.928;7.172;2022-12-24T17:29:52;8.50;69.70
12849;DHT22;6493;50.928;7.172;2022-12-24T17:34:56;8.60;69.70
12849;DHT22;6493;50.928;7.172;2022-12-24T17:40:07;8.60;70.10
12849;DHT22;6493;50.928;7.172;2022-12-24T17:45:11;8.60;69.20
12849;DHT22;6493;50.928;7.172;2022-12-24T17:50:14;8.50;69.10
12849;DHT22;6493;50.928;7.172;2022-12-24T17:55:20;8.50;69.00
12849;DHT22;6493;50.928;7.172;2022-12-24T18:00:25;8.40;68.70
12849;DHT22;6493;50.928;7.172;2022-12-24T18:05:35;8.30;68.70
12849;DHT22;6493;50.928;7.172;2022-12-24T18:10:41;8.30;68.90
12849;DHT22;6493;50.928;7.172;2022-12-24T18:15:44;8.20;68.80
12849;DHT22;6493;50.928;7.172;2022-12-24T18:20:48;8.20;69.00
12849;DHT22;6493;50.928;7.172;2022-12-24T18:25:53;8.20;69.00
12849;DHT22;6493;50.928;7.172;2022-12-24T18:31:04;8.20;69.20
12849;DHT22;6493;50.928;7.172;2022-12-24T18:36:10;8.20;69.20
12849;DHT22;6493;50.928;7.172;2022-12-24T18:41:18;8.20;69.10
12849;DHT22;6493;50.928;7.172;2022-12-24T18:46:24;8.20;69.00
12849;DHT22;6493;50.928;7.172;2022-12-24T18:51:31;8.20;69.10
12849;DHT22;6493;50.928;7.172;2022-12-24T18:56:38;8.30;69.30
12849;DHT22;6493;50.928;7.172;2022-12-24T19:01:42;8.30;69.00
12849;DHT22;6493;50.928;7.172;2022-12-24T19:06:46;8.30;68.90
12849;DHT22;6493;50.928;7.172;2022-12-24T19:11:56;8.30;68.80
12849;DHT22;6493;50.928;7.172;2022-12-24T19:16:59;8.30;68.90
12849;DHT22;6493;50.928;7.172;2022-12-24T19:22:03;8.20;68.80
12849;DHT22;6493;50.928;7.172;2022-12-24T19:27:08;8.30;68.90
12849;DHT22;6493;50.928;7.172;2022-12-24T19:32:12;8.20;68.80
12849;DHT22;6493;50.928;7.172;2022-12-24T19:37:15;8.30;68.90
12849;DHT22;6493;50.928;7.172;2022-12-24T19:42:20;8.20;68.80
12849;DHT22;6493;50.928;7.172;2022-12-24T19:47:24;8.20;68.60
12849;DHT22;6493;50.928;7.172;2022-12-24T19:52:28;8.20;68.50
12849;DHT22;6493;50.928;7.172;2022-12-24T19:57:34;8.20;68.60
12849;DHT22;6493;50.928;7.172;2022-12-24T20:02:38;8.10;68.50
12849;DHT22;6493;50.928;7.172;2022-12-24T20:07:41;8.10;69.30
12849;DHT22;6493;50.928;7.172;2022-12-24T20:12:46;8.10;68.50
12849;DHT22;6493;50.928;7.172;2022-12-24T20:17:50;8.00;68.60
12849;DHT22;6493;50.928;7.172;2022-12-24T20:22:56;7.90;67.60
12849;DHT22;6493;50.928;7.172;2022-12-24T20:28:02;7.80;67.60
12849;DHT22;6493;50.928;7.172;2022-12-24T20:33:05;7.60;67.50
12849;DHT22;6493;50.928;7.172;2022-12-24T20:38:09;7.50;67.40
12849;DHT22;6493;50.928;7.172;2022-12-24T20:43:14;7.40;67.70
12849;DHT22;6493;50.928;7.172;2022-12-24T20:48:25;7.30;68.60
12849;DHT22;6493;50.928;7.172;2022-12-24T20:53:29;7.30;67.90
12849;DHT22;6493;50.928;7.172;2022-12-24T20:58:34;7.20;68.00
12849;DHT22;6493;50.928;7.172;2022-12-24T21:03:38;7.30;68.30
12849;DHT22;6493;50.928;7.172;2022-12-24T21:08:42;7.30;68.40
12849;DHT22;6493;50.928;7.172;2022-12-24T21:13:47;7.30;68.50
12849;DHT22;6493;50.928;7.172;2022-12-24T21:18:51;7.30;68.60
12849;DHT22;6493;50.928;7.172;2022-12-24T21:23:55;7.40;68.70
12849;DHT22;6493;50.928;7.172;2022-12-24T21:29:00;7.40;68.60
12849;DHT22;6493;50.928;7.172;2022-12-24T21:34:06;7.40;69.20
12849;DHT22;6493;50.928;7.172;2022-12-24T21:39:09;7.50;68.60
12849;DHT22;6493;50.928;7.172;2022-12-24T21:44:14;7.50;68.60
12849;DHT22;6493;50.928;7.172;2022-12-24T21:49:18;7.50;68.50
12849;DHT22;6493;50.928;7.172;2022-12-24T21:54:39;7.60;68.60
12849;DHT22;6493;50.928;7.172;2022-12-24T21:59:44;7.60;68.50
12849;DHT22;6493;50.928;7.172;2022-12-24T22:04:48;7.60;68.60
12849;DHT22;6493;50.928;7.172;2022-12-24T22:09:51;7.60;68.60
12849;DHT22;6493;50.928;7.172;2022-12-24T22:15:14;7.60;68.50
12849;DHT22;6493;50.928;7.172;2022-12-24T22:20:18;7.60;68.20
12849;DHT22;6493;50.928;7.172;2022-12-24T22:25:21;7.70;68.30
12849;DHT22;6493;50.928;7.172;2022-12-24T22:30:26;7.60;68.00
12849;DHT22;6493;50.928;7.172;2022-12-24T22:35:30;7.60;67.70
12849;DHT22;6493;50.928;7.172;2022-12-24T22:40:37;7.50;67.90
12849;DHT22;6493;50.928;7.172;2022-12-24T22:45:42;7.40;67.50
12849;DHT22;6493;50.928;7.172;2022-12-24T22:50:47;7.30;67.50
12849;DHT22;6493;50.928;7.172;2022-12-24T22:55:54;7.20;67.20
12849;DHT22;6493;50.928;7.172;2022-12-24T23:01:00;7.10;67.30
12849;DHT22;6493;50.928;7.172;2022-12-24T23:06:05;7.00;67.30
12849;DHT22;6493;50.928;7.172;2022-12-24T23:11:12;6.90;67.30
12849;DHT22;6493;50.928;7.172;2022-12-24T23:16:17;6.80;67.40
12849;DHT22;6493;50.928;7.172;2022-12-24T23:21:21;6.70;67.40
12849;DHT22;6493;50.928;7.172;2022-12-24T23:26:25;6.60;67.50
12849;DHT22;6493;50.928;7.172;2022-12-24T23:31:31;6.50;67.60
12849;DHT22;6493;50.928;7.172;2022-12-24T23:36:36;6.50;67.80
12849;DHT22;6493;50.928;7.172;2022-12-24T23:41:39;6.40;67.80
12849;DHT22;6493;50.928;7.172;2022-12-24T23:46:44;6.30;67.80
12849;DHT22;6493;50.928;7.172;2022-12-24T23:51:48;6.20;68.00
12849;DHT22;6493;50.928;7.172;2022-12-24T23:56:51;6.20;68.40
